Kinloss, United Kingdom
Current Conditions -  °F | °C
As of 9:50 PM on Friday 24 Oct 2014 (Local Time) from EGQK Reporting Station
Few Clouds Few Clouds  
Wind Chill: 44°   Ceiling: Unl
Heat Index: 48°   Visibility: 6mi
Dew Point: 41°   Wind: 10mph
Humidity: 76%   Direction: 210°SSW
Pressure: 29.59"   Gusts: NA
Location:  57.64°N, 3.57°W
Report Text: EGQK 242050Z AUTO 21009KT 9999 FEW050/// 09/05 Q1002
Loading
Personal Weather Stations






























Interactive Weather Map
Tropical Storm Tracking
New forecast layout! Learn more

10-Day Weather Forecast

Advertisements
Track Severe Weather on mobile